Prospect, Connecticut
Current Conditions -  °F | °C
As of 10:53 PM on Thursday 20 Nov 2014 (Local Time) from KMMK Reporting Station
Clear Clear  
Wind Chill:   Ceiling: Unl
Heat Index:   Visibility: 10mi
Dew Point: -12°   Wind: 3mph
Humidity: 40%   Direction: 300°WNW
Pressure: 29.95"   Gusts: NA
Location:  41.5°N, 72.98°W
Report Text: KMMK 210353Z AUTO 30003KT 10SM CLR 00/M12 A2995 RMK AO2 SLP142 T00001122 TSNO
Loading
Personal Weather Stations






























Interactive Weather Map New forecast layout! Learn more

10-Day Weather Forecast

Advertisements
Track Severe Weather on mobile